This is the latest recevied weather packets stored in our database for station/object KF4PPJ. If no packets are shown the sender has not sent any weather packets the latest 10 day(s).
| Time | Temp. | Humidity | Pressure | Rain* | Wind** | Luminosity | Snow |
|---|---|---|---|---|---|---|---|
| 1778191278 | 16.67° C | 55% | 1021.8 hPa | 0 mm | - | 557 W/m² | - |
| 1778190672 | 16.67° C | 55% | 1021.6 hPa | 0 mm | - | 641 W/m² | - |
| 1778189761 | 17.22° C | 56% | 1021.8 hPa | 0 mm | - | 681 W/m² | - |
| 1778183995 | 15.56° C | 59% | 1022.8 hPa | 0 mm | - | 393 W/m² | - |
| 1778183694 | 15.56° C | 59% | 1022.7 hPa | 0 mm | - | 491 W/m² | - |
| 1778183390 | 15.56° C | 59% | 1022.8 hPa | 0 mm | - | 367 W/m² | - |
| 1778182782 | 15.56° C | 58% | 1022.8 hPa | 0 mm | - | 454 W/m² | - |
| 1778182480 | 15° C | 63% | 1022.8 hPa | 0 mm | - | 683 W/m² | - |
| 1778182177 | 14.44° C | 63% | 1023 hPa | 0 mm | - | 415 W/m² | - |
| 1778181872 | 14.44° C | 64% | 1022.8 hPa | 0 mm | - | 365 W/m² | - |
| 1778181570 | 14.44° C | 65% | 1023.1 hPa | 0 mm | - | 312 W/m² | - |
| 1778181266 | 15° C | 64% | 1023 hPa | 0 mm | - | 327 W/m² | - |
| 1778180962 | 14.44° C | 66% | 1022.9 hPa | 0 mm | - | 324 W/m² | - |
| 1778180660 | 14.44° C | 66% | 1023.1 hPa | 0 mm | - | 339 W/m² | - |
| 1778180359 | 14.44° C | 64% | 1023.2 hPa | 0 mm | - | 311 W/m² | - |
| 1778180056 | 14.44° C | 65% | 1023 hPa | 0 mm | - | 310 W/m² | - |
| 1778179753 | 14.44° C | 65% | 1023.3 hPa | 0 mm | - | 341 W/m² | - |
| 1778179148 | 15.56° C | 61% | 1023.2 hPa | 0 mm | - | 358 W/m² | - |
| 1778178844 | 15.56° C | 62% | 1023.3 hPa | 0 mm | - | 401 W/m² | - |
| 1778178542 | 15° C | 63% | 1023.3 hPa | 0 mm | - | 653 W/m² | - |
| 1778178237 | 14.44° C | 68% | 1023.2 hPa | 0 mm | - | 822 W/m² | - |
| 1778177934 | 15° C | 65% | 1023.4 hPa | 0 mm | - | 705 W/m² | - |
| 1778177630 | 14.44° C | 66% | 1023.3 hPa | 0 mm | - | 563 W/m² | - |
| 1778177327 | 13.89° C | 68% | 1023.4 hPa | 0 mm | - | 602 W/m² | - |
| 1778177024 | 13.89° C | 68% | 1023.4 hPa | 0 mm | - | 707 W/m² | - |
* Rain latest hour (hover to see other rain measurements)
** Current wind speed in m/s (hover to see current wind gust speed)